« Back
NWS Peachtree City, Ga » Text Product » ATL Terminal Aerodrome Forecast


Printer-friendly Version
Current Version              Previous Versions:   1  2  3  4  5  6  7  8  9  

Terminal Aerodrome Forecast

447
FTUS42 KFFC 020500
TAFATL
TAF
KATL 020523Z 0206/0312 17004KT P6SM FEW250
     FM021500 17006KT P6SM SCT045
     FM030000 16005KT P6SM FEW250
     FM030900 16005KT P6SM OVC070
     FM031100 16005KT 6SM -SHRA BR OVC025=



USA.gov is the U.S. government's official web portal to all federal, state and local government web resources and services.